Time;durP1;ratioP1;P1;durP2;ratioP2;P2;SDS_P1;SDS_P2;PMS_P1;PMS_P2;Temp;Humidity;BMP_temperature;BMP_pressure;BME280_temperature;BME280_humidity;BME280_pressure;Samples;Min_cycle;Max_cycle;Signal;HPM_P1;HPM_P2
2022/12/25 00:00:13;;;;;;;26.45;18.58;;;8.10;99.90;;;;;;5013091;28;20088;-54
2022/12/25 00:02:38;;;;;;;26.92;19.35;;;8.20;99.90;;;;;;5011061;28;20034;-54
2022/12/25 00:05:05;;;;;;;20.63;15.32;;;8.40;99.90;;;;;;5013261;28;20105;-53
2022/12/25 00:07:31;;;;;;;18.73;15.18;;;8.50;99.90;;;;;;5011002;28;20049;-55
2022/12/25 00:09:57;;;;;;;21.65;16.00;;;8.60;99.90;;;;;;5012987;28;20038;-53
2022/12/25 00:12:23;;;;;;;22.30;17.63;;;8.70;99.90;;;;;;5013030;28;20448;-53
2022/12/25 00:14:49;;;;;;;24.13;18.10;;;8.90;99.90;;;;;;5012694;28;20473;-53
2022/12/25 00:17:15;;;;;;;22.77;17.63;;;8.90;99.90;;;;;;5012677;28;20505;-53
2022/12/25 00:19:40;;;;;;;35.53;28.00;;;9.00;99.90;;;;;;5016227;28;20033;-55
2022/12/25 00:22:06;;;;;;;26.95;16.90;;;8.70;99.90;;;;;;5016470;28;20026;-53
2022/12/25 00:24:32;;;;;;;80.57;14.32;;;8.40;99.90;;;;;;5016316;28;20030;-53
2022/12/25 00:26:57;;;;;;;43.10;14.57;;;8.10;99.90;;;;;;5015927;28;20026;-54
2022/12/25 00:29:23;;;;;;;22.05;15.02;;;7.90;99.90;;;;;;5016055;28;20026;-53
2022/12/25 00:31:49;;;;;;;26.95;19.98;;;8.00;99.90;;;;;;5015817;28;20018;-55
2022/12/25 00:34:15;;;;;;;20.83;16.80;;;8.20;99.90;;;;;;5016414;28;20041;-55
2022/12/25 00:36:41;;;;;;;21.23;15.75;;;8.40;99.90;;;;;;5016134;28;20030;-51
2022/12/25 00:39:06;;;;;;;19.83;14.85;;;8.60;99.90;;;;;;5015759;28;20105;-53
2022/12/25 00:44:16;;;;;;;19.17;14.50;;;8.60;99.90;;;;;;5015733;28;20049;-53
2022/12/25 00:46:42;;;;;;;19.05;13.93;;;8.50;99.90;;;;;;5015718;28;20477;-53
2022/12/25 00:49:09;;;;;;;17.63;13.95;;;8.60;99.90;;;;;;5030386;28;20112;-54
2022/12/25 00:51:35;;;;;;;72.13;44.08;;;8.70;99.90;;;;;;5015659;28;20026;-54
2022/12/25 00:54:01;;;;;;;445.80;312.27;;;8.70;99.90;;;;;;5015321;28;20125;-52
2022/12/25 00:56:27;;;;;;;152.00;102.95;;;8.80;99.90;;;;;;5015479;28;20060;-54
2022/12/25 00:58:53;;;;;;;31.73;25.50;;;;;;;;;;4997209;28;20053;-54
2022/12/25 01:01:19;;;;;;;32.00;26.17;;;8.80;99.90;;;;;;5015129;28;20025;-54
2022/12/25 01:03:45;;;;;;;31.33;24.83;;;8.90;99.90;;;;;;5015932;28;20026;-56
2022/12/25 01:06:12;;;;;;;31.38;20.85;;;9.00;99.90;;;;;;5015729;28;20030;-55
2022/12/25 01:10:21;;;;;;;21.90;17.17;;;9.10;99.90;;;;;;5015414;28;20038;-54
2022/12/25 01:11:25;;;;;;;21.98;15.88;;;9.10;99.90;;;;;;5015223;28;20057;-54
2022/12/25 01:13:51;;;;;;;24.52;16.65;;;9.10;99.90;;;;;;5015143;28;20038;-53
2022/12/25 01:16:17;;;;;;;21.08;15.55;;;9.20;99.90;;;;;;5015567;28;20550;-53
2022/12/25 01:18:45;;;;;;;24.10;17.98;;;9.20;99.90;;;;;;5015034;28;20073;-53
2022/12/25 01:21:16;;;;;;;40.10;27.17;;;9.00;99.90;;;;;;5015008;28;20034;-53
2022/12/25 01:23:43;;;;;;;39.42;27.40;;;8.80;99.90;;;;;;5015097;28;20029;-52
2022/12/25 01:26:11;;;;;;;29.38;20.90;;;8.50;99.90;;;;;;5015469;28;20091;-52
2022/12/25 01:28:37;;;;;;;32.92;25.63;;;8.60;99.90;;;;;;5014988;28;20021;-52
2022/12/25 01:31:04;;;;;;;41.55;28.95;;;8.70;99.90;;;;;;5014795;28;20034;-54
2022/12/25 01:33:30;;;;;;;25.90;17.60;;;8.80;99.90;;;;;;5014786;28;20042;-54
2022/12/25 01:35:57;;;;;;;22.98;17.02;;;8.90;99.90;;;;;;5014758;28;20037;-53
2022/12/25 01:38:23;;;;;;;19.75;14.90;;;8.90;99.90;;;;;;5015063;28;20041;-52
2022/12/25 01:40:49;;;;;;;22.73;17.13;;;8.90;99.90;;;;;;5014912;28;20160;-53
2022/12/25 01:43:30;;;;;;;20.35;17.20;;;8.90;99.90;;;;;;5010161;28;20033;-52
2022/12/25 01:45:56;;;;;;;24.25;16.15;;;8.90;99.90;;;;;;5014573;28;20057;-54
2022/12/25 01:48:40;;;;;;;18.10;14.13;;;9.00;99.90;;;;;;5014310;28;20026;-53
2022/12/25 01:51:22;;;;;;;16.88;10.98;;;9.00;99.90;;;;;;5014486;28;20440;-54
2022/12/25 01:53:47;;;;;;;15.00;10.90;;;8.90;99.90;;;;;;5014424;28;20121;-53
2022/12/25 01:56:13;;;;;;;13.68;10.77;;;8.70;99.90;;;;;;4996017;28;20533;-54
2022/12/25 01:58:39;;;;;;;12.65;9.13;;;8.60;99.90;;;;;;4996043;28;20413;-52
2022/12/25 02:01:05;;;;;;;11.25;9.32;;;8.60;99.90;;;;;;5028662;28;20041;-54
2022/12/25 02:03:31;;;;;;;12.60;9.55;;;8.50;99.90;;;;;;5012504;28;20053;-53
2022/12/25 02:05:57;;;;;;;10.40;7.85;;;8.30;99.90;;;;;;5014150;28;20030;-55
2022/12/25 02:08:23;;;;;;;9.30;6.85;;;8.30;99.90;;;;;;5014097;28;20025;-53
2022/12/25 02:10:49;;;;;;;9.52;6.95;;;8.10;99.90;;;;;;5014292;28;20098;-52
2022/12/25 02:13:18;;;;;;;9.63;7.43;;;8.20;99.90;;;;;;5014254;28;20073;-54
2022/12/25 02:15:58;;;;;;;8.90;6.53;;;8.20;99.90;;;;;;5013941;28;20029;-54
2022/12/25 02:18:24;;;;;;;9.93;7.00;;;8.20;99.90;;;;;;5013642;28;20156;-54
2022/12/25 02:21:07;;;;;;;8.23;6.15;;;8.30;99.90;;;;;;5013947;28;20117;-52
2022/12/25 02:23:39;;;;;;;11.60;6.57;;;8.30;99.90;;;;;;5013970;28;20465;-52
2022/12/25 02:26:27;;;;;;;9.43;6.18;;;8.40;99.90;;;;;;5013709;28;20048;-54
2022/12/25 02:29:16;;;;;;;10.73;5.97;;;8.40;99.90;;;;;;5014040;28;20034;-53
2022/12/25 02:32:04;;;;;;;9.98;6.38;;;8.40;99.90;;;;;;5012002;28;20038;-53
2022/12/25 02:34:47;;;;;;;10.23;5.75;;;8.40;99.90;;;;;;5013832;28;20034;-52
2022/12/25 02:37:25;;;;;;;8.05;5.13;;;8.40;99.90;;;;;;5013673;28;20064;-52
2022/12/25 02:39:56;;;;;;;10.43;6.00;;;8.40;99.90;;;;;;5013368;28;20116;-54
2022/12/25 03:08:17;;;;;;;52.33;20.05;;;8.30;99.90;;;;;;5013640;28;20040;-53
2022/12/25 03:13:38;;;;;;;127.35;24.23;;;8.40;99.90;;;;;;5013665;28;20044;-54
2022/12/25 03:18:49;;;;;;;113.22;20.67;;;8.40;99.90;;;;;;5013113;28;20065;-52
2022/12/25 03:26:54;;;;;;;109.10;18.10;;;7.90;99.90;;;;;;5013663;28;20087;-53
2022/12/25 03:32:16;;;;;;;72.82;16.80;;;;;;;;;;5013421;28;20392;-54
2022/12/25 04:38:37;;;;;;;9.60;6.28;;;6.60;99.90;;;;;;4976811;28;20402;-53
2022/12/25 04:41:03;;;;;;;10.52;6.53;;;6.60;99.90;;;;;;4976825;28;20054;-53
2022/12/25 04:43:29;;;;;;;10.15;5.95;;;6.60;99.90;;;;;;4976824;28;20054;-53
2022/12/25 04:45:56;;;;;;;11.20;6.45;;;6.40;99.90;;;;;;4974670;28;20077;-54
2022/12/25 04:48:23;;;;;;;12.05;8.60;;;6.20;99.90;;;;;;4977089;28;20097;-54
2022/12/25 04:50:49;;;;;;;10.48;7.40;;;6.20;99.90;;;;;;4976945;28;20034;-52
2022/12/25 04:53:16;;;;;;;10.25;7.38;;;6.40;99.90;;;;;;4976572;28;20035;-52
2022/12/25 04:55:42;;;;;;;11.90;7.22;;;6.70;99.90;;;;;;4976371;28;20498;-53
2022/12/25 04:58:08;;;;;;;9.70;7.57;;;7.00;99.90;;;;;;4976817;28;20045;-53
2022/12/25 05:00:35;;;;;;;10.38;7.00;;;7.10;99.90;;;;;;4976596;28;20026;-54
2022/12/25 05:03:00;;;;;;;10.35;7.07;;;7.10;99.90;;;;;;4976534;28;20041;-53
2022/12/25 05:05:26;;;;;;;21.02;10.85;;;7.10;99.90;;;;;;4975882;28;20030;-54
2022/12/25 05:07:52;;;;;;;10.52;8.18;;;7.20;99.90;;;;;;4976450;28;20058;-53
2022/12/25 05:10:18;;;;;;;12.73;9.35;;;7.50;99.90;;;;;;4976538;28;20042;-55
2022/12/25 05:12:44;;;;;;;12.75;8.38;;;7.80;99.90;;;;;;4975981;28;20526;-54
2022/12/25 05:15:10;;;;;;;13.90;9.85;;;7.90;99.90;;;;;;4976136;28;20113;-52
2022/12/25 05:17:36;;;;;;;13.05;9.27;;;8.10;99.90;;;;;;4991392;28;20085;-52
2022/12/25 05:20:03;;;;;;;13.13;8.82;;;8.20;99.90;;;;;;4976454;28;20058;-54
2022/12/25 05:22:29;;;;;;;33.20;17.65;;;8.30;99.90;;;;;;4974422;28;20031;-54
2022/12/25 05:24:55;;;;;;;20.42;13.48;;;8.10;99.90;;;;;;4976518;28;20029;-53
2022/12/25 05:27:20;;;;;;;19.85;11.25;;;7.90;99.90;;;;;;4976085;28;20082;-53
2022/12/25 05:29:46;;;;;;;14.32;9.45;;;7.90;99.90;;;;;;4976176;28;20081;-55
2022/12/25 05:32:12;;;;;;;12.60;9.27;;;7.90;99.90;;;;;;4975935;28;20121;-53
2022/12/25 05:34:38;;;;;;;20.55;12.02;;;7.90;99.90;;;;;;4974157;28;20122;-55
2022/12/25 05:37:03;;;;;;;19.33;11.77;;;8.00;99.90;;;;;;4977947;28;20035;-54
2022/12/25 05:39:29;;;;;;;16.33;12.30;;;7.80;99.90;;;;;;4983777;28;20026;-54
2022/12/25 05:41:55;;;;;;;147.20;78.70;;;7.90;99.90;;;;;;4985620;28;20014;-52
2022/12/25 05:44:20;;;;;;;60.65;36.72;;;7.70;99.90;;;;;;4985360;28;20027;-54
2022/12/25 05:46:46;;;;;;;22.98;17.75;;;7.80;99.90;;;;;;4983416;28;20109;-53
2022/12/25 05:49:12;;;;;;;19.73;14.60;;;7.60;99.90;;;;;;4984711;28;20034;-55
2022/12/25 05:51:38;;;;;;;20.10;12.70;;;7.20;99.90;;;;;;4984591;28;20019;-54
2022/12/25 05:54:03;;;;;;;19.38;15.05;;;7.00;99.90;;;;;;4985221;28;20041;-52
2022/12/25 05:56:29;;;;;;;47.15;39.05;;;7.00;99.90;;;;;;4992554;28;20121;-54
2022/12/25 05:58:55;;;;;;;28.35;21.58;;;6.90;99.90;;;;;;4974641;28;20061;-54
2022/12/25 06:01:23;;;;;;;18.10;14.20;;;6.90;99.90;;;;;;4988368;28;20043;-53
2022/12/25 06:03:49;;;;;;;16.95;12.02;;;6.80;99.90;;;;;;4974743;28;20031;-55
2022/12/25 06:06:15;;;;;;;17.20;11.98;;;6.90;99.90;;;;;;4974280;28;20027;-54
2022/12/25 06:08:40;;;;;;;17.90;10.65;;;7.00;99.90;;;;;;4977105;28;20092;-55
2022/12/25 06:11:08;;;;;;;15.32;11.40;;;7.10;99.90;;;;;;4983253;28;20031;-55
2022/12/25 06:13:34;;;;;;;16.23;10.85;;;7.00;99.90;;;;;;4972741;28;20042;-53
2022/12/25 06:16:06;;;;;;;15.23;9.95;;;7.00;99.90;;;;;;4971484;28;20037;-52
2022/12/25 06:18:37;;;;;;;14.98;9.23;;;6.80;99.90;;;;;;4988005;28;20109;-55
2022/12/25 06:21:10;;;;;;;12.60;8.45;;;6.70;99.90;;;;;;4974043;28;20085;-52
2022/12/25 06:23:38;;;;;;;11.27;7.95;;;6.80;99.90;;;;;;4973926;28;20055;-55
2022/12/25 06:26:09;;;;;;;15.77;12.55;;;6.80;99.90;;;;;;4973978;28;20062;-52
2022/12/25 06:28:35;;;;;;;12.32;8.45;;;6.80;99.90;;;;;;4973982;28;20505;-54
2022/12/25 06:31:09;;;;;;;9.93;8.57;;;6.80;99.90;;;;;;4973874;28;20038;-53
2022/12/25 06:33:35;;;;;;;15.02;9.15;;;6.80;99.90;;;;;;4974030;28;20034;-55
2022/12/25 06:36:16;;;;;;;9.68;7.32;;;6.70;99.90;;;;;;4987976;28;20034;-51
2022/12/25 06:38:41;;;;;;;10.82;8.75;;;6.80;99.90;;;;;;4973526;28;20041;-55
2022/12/25 06:41:11;;;;;;;19.42;11.38;;;6.80;99.90;;;;;;4973758;28;20109;-52
2022/12/25 06:43:37;;;;;;;26.65;15.15;;;6.80;99.90;;;;;;4973780;28;20034;-52
2022/12/25 06:46:06;;;;;;;31.67;21.13;;;6.40;99.90;;;;;;4973686;28;20117;-53
2022/12/25 06:48:35;;;;;;;35.40;22.88;;;6.50;99.90;;;;;;4987485;28;20037;-53
2022/12/25 06:51:02;;;;;;;35.78;20.73;;;6.60;99.90;;;;;;4973066;28;20031;-52
2022/12/25 06:53:28;;;;;;;20.63;17.65;;;6.50;99.90;;;;;;4973396;28;20042;-54
2022/12/25 06:56:05;;;;;;;29.25;18.48;;;6.50;99.90;;;;;;4973401;28;20031;-53
2022/12/25 06:58:31;;;;;;;62.67;30.88;;;;;;;;;;4973579;28;20085;-54
2022/12/25 07:00:58;;;;;;;97.00;40.67;;;;;;;;;;4973306;28;20035;-52
2022/12/25 07:03:27;;;;;;;103.65;41.75;;;11.10;99.90;;;;;;4973520;28;20022;-53
2022/12/25 07:05:53;;;;;;;40.00;20.55;;;;;;;;;;4973703;28;20038;-54
2022/12/25 07:08:19;;;;;;;39.38;21.63;;;15.70;99.90;;;;;;4973535;28;20027;-54
2022/12/25 07:10:44;;;;;;;51.15;26.35;;;16.70;99.90;;;;;;4973195;28;20389;-55
2022/12/25 07:13:10;;;;;;;39.85;23.55;;;;;;;;;;4984877;28;20042;-54
2022/12/25 07:15:36;;;;;;;37.13;23.50;;;19.70;99.90;;;;;;4992810;28;20026;-52
2022/12/25 07:18:02;;;;;;;39.58;25.95;;;20.10;99.90;;;;;;4993065;28;20457;-53
2022/12/25 07:20:28;;;;;;;61.63;35.85;;;21.00;99.90;;;;;;4993990;28;20034;-53
2022/12/25 07:22:55;;;;;;;49.95;36.00;;;;;;;;;;4993283;28;20032;-52
2022/12/25 07:25:21;;;;;;;52.33;35.53;;;22.50;97.00;;;;;;4993869;28;20022;-51
2022/12/25 07:27:47;;;;;;;48.17;35.38;;;;;;;;;;4995788;28;20030;-52
2022/12/25 07:30:13;;;;;;;32.75;23.70;;;23.60;95.20;;;;;;4997453;28;20041;-50
2022/12/25 07:32:38;;;;;;;52.58;44.30;;;22.80;99.90;;;;;;4979628;28;20046;-51
2022/12/25 07:35:04;;;;;;;43.35;37.30;;;22.00;93.50;;;;;;4997469;28;20038;-51
2022/12/25 07:37:30;;;;;;;37.75;33.78;;;;;;;;;;4997830;28;20022;-51
2022/12/25 07:39:56;;;;;;;50.65;37.30;;;22.20;99.90;;;;;;4997501;28;20031;-52
2022/12/25 07:42:22;;;;;;;41.20;29.90;;;;;;;;;;4995800;28;20158;-51
2022/12/25 07:44:48;;;;;;;21.95;17.50;;;23.00;91.30;;;;;;4997461;28;20026;-51
2022/12/25 07:47:14;;;;;;;14.98;13.23;;;23.80;92.00;;;;;;4997348;28;20381;-51
2022/12/25 07:49:40;;;;;;;18.13;15.80;;;;;;;;;;4997951;28;20031;-52
2022/12/25 07:52:06;;;;;;;18.67;14.55;;;;;;;;;;4997411;28;20030;-52
2022/12/25 07:54:31;;;;;;;14.73;13.07;;;25.10;89.00;;;;;;4997225;28;20113;-51
2022/12/25 07:56:58;;;;;;;16.80;15.10;;;;;;;;;;4997025;28;20130;-51
2022/12/25 07:59:23;;;;;;;18.80;16.77;;;25.80;87.80;;;;;;4995449;28;20038;-53
2022/12/25 08:01:49;;;;;;;21.10;19.00;;;;;;;;;;4978930;28;20418;-51
2022/12/25 08:04:15;;;;;;;20.25;18.20;;;26.80;86.10;;;;;;4997387;28;20113;-52
2022/12/25 08:06:41;;;;;;;12.00;10.80;;;;;;;;;;4995313;28;20077;-52
2022/12/25 08:09:08;;;;;;;14.85;13.35;;;;;;;;;;4996963;28;20041;-51
2022/12/25 08:11:35;;;;;;;15.40;13.80;;;;;;;;;;4997531;28;20097;-53
2022/12/25 08:14:01;;;;;;;12.15;10.93;;;;;;;;;;4996970;28;20030;-51
2022/12/25 08:16:27;;;;;;;11.82;10.73;;;28.80;81.00;;;;;;4996820;28;20060;-52
2022/12/25 08:18:53;;;;;;;11.60;10.50;;;29.20;80.60;;;;;;4996491;28;20068;-51
2022/12/25 08:21:18;;;;;;;16.83;14.45;;;28.70;80.80;;;;;;4978919;28;20118;-53
2022/12/25 08:23:46;;;;;;;27.48;21.33;;;28.20;79.60;;;;;;4996876;28;20037;-54
2022/12/25 08:26:15;;;;;;;21.85;15.68;;;28.60;80.50;;;;;;4996510;28;20030;-52
2022/12/25 08:28:41;;;;;;;20.65;15.63;;;29.10;79.40;;;;;;4996988;28;20026;-54
2022/12/25 08:31:25;;;;;;;25.40;17.63;;;29.20;79.30;;;;;;4996491;28;20084;-54
2022/12/25 08:33:53;;;;;;;32.70;19.75;;;29.20;78.50;;;;;;4996500;28;20474;-54
2022/12/25 08:36:19;;;;;;;19.27;17.00;;;29.10;78.40;;;;;;4995499;28;20176;-54
2022/12/25 08:38:46;;;;;;;19.58;16.95;;;29.20;78.60;;;;;;5009919;28;20560;-55
2022/12/25 08:41:12;;;;;;;13.13;11.75;;;;;;;;;;4995080;28;20378;-54
2022/12/25 08:43:38;;;;;;;10.93;9.82;;;29.40;77.40;;;;;;4996787;28;20027;-52
2022/12/25 08:46:04;;;;;;;11.43;10.32;;;29.40;77.50;;;;;;4996482;28;20544;-51
2022/12/25 08:48:30;;;;;;;20.58;17.75;;;29.30;77.90;;;;;;4962025;28;20047;-52
2022/12/25 08:50:56;;;;;;;17.70;15.15;;;29.20;77.80;;;;;;4996333;28;20034;-53
2022/12/25 08:53:23;;;;;;;24.67;20.77;;;;;;;;;;4996442;28;20042;-50
2022/12/25 08:55:49;;;;;;;23.92;21.52;;;;;;;;;;4996268;28;20034;-53
2022/12/25 08:58:15;;;;;;;21.17;18.65;;;;;;;;;;4996037;28;20721;-54
2022/12/25 09:00:42;;;;;;;18.38;16.48;;;;;;;;;;4993885;28;20042;-54
2022/12/25 09:03:08;;;;;;;15.68;14.07;;;;;;;;;;4993935;28;20066;-53
2022/12/25 09:05:35;;;;;;;15.77;14.18;;;;;;;;;;4993902;28;20077;-52
2022/12/25 09:08:01;;;;;;;17.10;15.57;;;;;;;;;;4993676;28;20177;-52
2022/12/25 09:10:27;;;;;;;17.20;15.43;;;;;;;;;;4993865;28;20053;-54
2022/12/25 09:12:53;;;;;;;18.90;16.90;;;;;;;;;;4993789;28;20034;-52
2022/12/25 09:15:19;;;;;;;14.98;13.57;;;;;;;;;;4977311;28;20057;-55
2022/12/25 09:17:46;;;;;;;16.25;14.65;;;;;;;;;;4992405;28;20108;-54
2022/12/25 09:20:12;;;;;;;19.02;16.70;;;;;;;;;;4993016;28;20062;-53
2022/12/25 09:22:38;;;;;;;19.83;17.75;;;;;;;;;;4961243;28;20031;-51
2022/12/25 09:25:04;;;;;;;27.08;24.33;;;;;;;;;;4993337;28;20085;-54
2022/12/25 09:27:31;;;;;;;30.60;27.55;;;;;;;;;;4993590;28;20073;-53
2022/12/25 09:29:57;;;;;;;27.48;24.58;;;;;;;;;;4993563;28;20026;-54
2022/12/25 09:32:23;;;;;;;21.63;19.52;;;;;;;;;;4994813;28;20494;-53
2022/12/25 09:34:50;;;;;;;18.48;16.67;;;;;;;;;;4995367;28;20471;-54
2022/12/25 09:37:16;;;;;;;15.60;14.20;;;;;;;;;;4995678;28;20117;-52
2022/12/25 09:39:42;;;;;;;16.08;14.38;;;;;;;;;;4995296;28;20034;-54
2022/12/25 09:42:12;;;;;;;14.75;12.52;;;;;;;;;;4993301;28;20034;-54
2022/12/25 09:44:41;;;;;;;14.48;13.18;;;;;;;;;;4995224;28;20046;-53
2022/12/25 09:47:14;;;;;;;18.38;16.55;;;;;;;;;;4995003;28;20084;-53
2022/12/25 09:49:40;;;;;;;16.23;14.52;;;;;;;;;;4995306;28;20030;-52
2022/12/25 09:52:15;;;;;;;14.85;13.45;;;;;;;;;;4994907;28;20039;-53
2022/12/25 09:54:41;;;;;;;11.13;10.00;;;;;;;;;;4994984;28;20038;-53
2022/12/25 09:57:12;;;;;;;10.52;9.63;;;;;;;;;;4995036;28;20500;-54
2022/12/25 09:59:39;;;;;;;;;;;;;;;;;;4993576;28;20054;-53
2022/12/25 10:02:14;;;;;;;9.00;8.20;;;;;;;;;;4994989;28;20000;-51
2022/12/25 10:04:46;;;;;;;9.52;8.73;;;;;;;;;;4994630;28;20034;-53
2022/12/25 10:07:20;;;;;;;14.93;13.45;;;;;;;;;;4994889;28;20146;-52
2022/12/25 10:10:05;;;;;;;14.98;12.85;;;;;;;;;;4993477;28;20393;-52
2022/12/25 10:12:50;;;;;;;12.82;11.55;;;;;;;;;;4994895;28;20046;-52
2022/12/25 10:15:16;;;;;;;10.70;9.70;;;;;;;;;;4992693;28;20035;-54
2022/12/25 10:17:57;;;;;;;11.45;9.52;;;;;;;;;;4994380;28;20038;-54
2022/12/25 10:20:23;;;;;;;;;;;;;;;;;;4995233;28;20098;-52
2022/12/25 10:22:52;;;;;;;11.02;9.88;;;;;;;;;;4994706;28;19953;-54
2022/12/25 10:25:20;;;;;;;18.98;15.80;;;;;;;;;;4994439;28;20348;-54
2022/12/25 10:27:49;;;;;;;13.65;12.25;;;;;;;;;;4993155;28;20038;-53
2022/12/25 10:30:16;;;;;;;10.75;9.15;;;;;;;;;;4993943;28;20026;-53
2022/12/25 10:32:42;;;;;;;14.70;11.95;;;;;;;;;;4994279;28;20125;-53
2022/12/25 10:35:13;;;;;;;26.70;18.08;;;;;;;;;;4994014;28;20045;-51
2022/12/25 10:37:40;;;;;;;23.17;16.90;;;;;;;;;;4994469;28;20441;-54
2022/12/25 10:40:25;;;;;;;15.38;10.77;;;;;;;;;;4994088;28;20057;-55
2022/12/25 10:42:55;;;;;;;13.75;9.75;;;;;;;;;;4994384;28;20038;-52
2022/12/25 10:45:20;;;;;;;6.88;6.18;;;27.80;77.60;;;;;;4994695;28;20031;-53
2022/12/25 10:47:47;;;;;;;7.13;6.43;;;;;;;;;;4994036;28;20049;-53
2022/12/25 10:50:25;;;;;;;9.35;7.05;;;;;;;;;;4994005;28;20041;-52
2022/12/25 10:53:00;;;;;;;11.07;7.55;;;;;;;;;;4994068;28;20042;-54
2022/12/25 10:55:25;;;;;;;7.50;6.05;;;27.00;78.40;;;;;;4994052;28;20034;-54
2022/12/25 10:57:51;;;;;;;9.50;7.28;;;26.90;79.10;;;;;;4993915;28;20042;-54
2022/12/25 11:00:22;;;;;;;7.50;6.72;;;26.20;80.70;;;;;;4993763;28;20042;-55
2022/12/25 11:02:49;;;;;;;10.70;8.15;;;26.10;80.20;;;;;;4991333;28;20038;-52
2022/12/25 11:05:27;;;;;;;18.27;14.77;;;26.10;80.30;;;;;;4994068;28;20042;-54
2022/12/25 11:07:54;;;;;;;25.30;14.85;;;26.30;80.80;;;;;;4994116;28;20077;-54
2022/12/25 11:10:30;;;;;;;10.82;8.18;;;;;;;;;;4993959;28;20455;-51
2022/12/25 11:12:56;;;;;;;14.48;11.07;;;25.60;80.70;;;;;;4993836;28;20034;-52
2022/12/25 11:15:31;;;;;;;10.38;8.40;;;25.30;82.00;;;;;;4993675;28;20078;-51
2022/12/25 11:17:57;;;;;;;31.30;20.90;;;25.60;81.40;;;;;;4993613;28;20402;-54
2022/12/25 11:20:23;;;;;;;62.80;33.95;;;25.40;81.50;;;;;;4993620;28;20116;-52
2022/12/25 11:22:50;;;;;;;11.60;8.00;;;25.80;82.20;;;;;;4993581;28;20490;-52
2022/12/25 11:25:25;;;;;;;95.63;43.65;;;25.70;79.90;;;;;;4993743;28;20537;-51
2022/12/25 11:27:58;;;;;;;45.13;22.92;;;;;;;;;;4972281;28;20047;-53
2022/12/25 11:30:24;;;;;;;48.25;22.83;;;;;;;;;;4972318;28;20125;-51
2022/12/25 11:32:54;;;;;;;28.50;15.95;;;;;;;;;;4971899;28;20059;-52
2022/12/25 11:35:21;;;;;;;43.13;21.05;;;;;;;;;;4971872;28;20058;-53
2022/12/25 11:37:53;;;;;;;44.95;19.13;;;;;;;;;;4972154;28;20038;-54
2022/12/25 11:40:19;;;;;;;68.18;26.83;;;;;;;;;;4972025;28;20530;-52
2022/12/25 11:42:52;;;;;;;54.75;23.70;;;;;;;;;;4972040;28;20141;-55
2022/12/25 11:45:31;;;;;;;30.98;14.48;;;;;;;;;;4971800;28;20039;-54
2022/12/25 11:48:02;;;;;;;48.80;20.33;;;23.60;93.00;;;;;;4971945;28;20054;-52
2022/12/25 11:50:48;;;;;;;24.92;13.85;;;21.50;90.20;;;;;;4971950;28;20042;-53
2022/12/25 11:53:19;;;;;;;47.42;19.33;;;;;;;;;;4971779;28;20078;-53
2022/12/25 11:55:53;;;;;;;17.50;9.73;;;23.20;97.80;;;;;;4955923;28;20039;-54
2022/12/25 11:58:28;;;;;;;68.85;24.63;;;;;;;;;;4978166;28;20077;-54
2022/12/25 12:00:56;;;;;;;43.50;17.77;;;22.50;95.20;;;;;;4993339;28;20113;-54
2022/12/25 12:03:32;;;;;;;69.90;21.85;;;22.60;90.90;;;;;;4993038;28;20046;-52
2022/12/25 12:06:36;;;;;;;41.08;16.33;;;22.30;90.60;;;;;;4993515;28;20113;-54
2022/12/25 12:09:25;;;;;;;38.13;13.77;;;22.50;90.70;;;;;;4991127;28;20078;-54
2022/12/25 12:25:03;;;;;;;77.93;20.30;;;20.70;93.30;;;;;;5110705;27;20381;-50
2022/12/25 12:27:38;;;;;;;47.93;13.80;;;19.90;92.60;;;;;;5110890;28;20114;-52
2022/12/25 12:30:05;;;;;;;51.10;14.55;;;19.70;92.10;;;;;;5111175;28;20355;-51
2022/12/25 12:32:41;;;;;;;27.52;8.88;;;19.80;96.80;;;;;;5071299;28;20094;-51
2022/12/25 12:35:13;;;;;;;29.58;10.35;;;19.50;92.60;;;;;;5088049;28;20036;-50
2022/12/25 12:37:40;;;;;;;22.65;7.43;;;19.20;93.00;;;;;;5088458;28;20044;-50
2022/12/25 12:40:25;;;;;;;53.33;15.55;;;18.90;93.20;;;;;;5088040;28;20032;-50
2022/12/25 12:42:51;;;;;;;44.42;11.98;;;18.80;94.50;;;;;;5008491;28;20036;-51
2022/12/25 12:45:23;;;;;;;22.90;8.38;;;18.80;93.80;;;;;;5087986;28;20052;-50
2022/12/25 12:47:51;;;;;;;46.70;14.05;;;18.40;94.80;;;;;;5087889;28;20041;-50
2022/12/25 12:50:39;;;;;;;68.72;18.83;;;18.40;98.50;;;;;;5087848;28;20028;-49
2022/12/25 12:53:27;;;;;;;22.20;9.90;;;18.20;94.30;;;;;;5087506;28;20048;-51
2022/12/25 12:55:53;;;;;;;19.17;7.65;;;17.80;94.80;;;;;;5087719;28;20491;-52
2022/12/25 12:58:31;;;;;;;23.10;7.90;;;17.80;94.70;;;;;;5087638;28;20036;-52
2022/12/25 13:01:05;;;;;;;32.78;9.70;;;17.90;95.10;;;;;;5087700;28;20032;-51
2022/12/25 13:03:55;;;;;;;42.47;12.85;;;17.90;95.30;;;;;;5099067;28;20035;-50
2022/12/25 13:06:27;;;;;;;81.43;21.40;;;;;;;;;;5109990;28;20085;-50
2022/12/25 13:08:52;;;;;;;;;;;17.90;99.90;;;;;;5096885;28;20029;-50
2022/12/25 13:11:26;;;;;;;35.15;12.52;;;;;;;;;;5089712;28;19912;-50
2022/12/25 13:13:54;;;;;;;46.95;15.48;;;;;;;;;;5089502;28;20494;-50
2022/12/25 13:16:20;;;;;;;37.60;13.07;;;;;;;;;;5089483;28;20028;-50
2022/12/25 13:18:46;;;;;;;18.80;6.93;;;17.40;96.80;;;;;;5089506;28;20020;-49
2022/12/25 13:21:16;;;;;;;51.03;15.10;;;;;;;;;;5089155;28;20028;-50
2022/12/25 13:23:42;;;;;;;47.97;17.40;;;17.40;99.90;;;;;;5088774;28;20044;-52
2022/12/25 13:26:12;;;;;;;56.97;16.25;;;;;;;;;;5040005;28;20089;-51
2022/12/25 13:28:38;;;;;;;20.70;8.38;;;17.30;99.90;;;;;;5075409;28;20399;-51
2022/12/25 13:31:20;;;;;;;33.40;11.95;;;17.20;97.80;;;;;;5023693;28;20037;-52
2022/12/25 13:34:18;;;;;;;57.90;17.20;;;17.20;98.40;;;;;;5040415;28;20044;-51
2022/12/25 13:36:44;;;;;;;31.75;11.95;;;17.40;99.10;;;;;;4994223;28;20034;-51
2022/12/25 13:39:16;;;;;;;63.65;19.17;;;;;;;;;;4994118;28;20030;-50
2022/12/25 13:42:08;;;;;;;56.97;18.80;;;;;;;;;;4994316;28;20085;-50
2022/12/25 13:44:37;;;;;;;49.08;16.38;;;;;;;;;;4993894;28;20030;-51
2022/12/25 13:47:18;;;;;;;36.95;15.57;;;;;;;;;;4994159;28;20045;-50
2022/12/25 13:49:44;;;;;;;98.30;28.70;;;;;;;;;;4994154;28;20026;-49
2022/12/25 13:52:11;;;;;;;48.65;20.40;;;;;;;;;;4993958;28;20038;-49
2022/12/25 13:54:37;;;;;;;29.63;15.77;;;17.90;99.90;;;;;;4993909;28;20049;-51
2022/12/25 13:57:10;;;;;;;50.92;21.25;;;18.20;99.90;;;;;;4993780;28;20093;-51
2022/12/25 13:59:37;;;;;;;75.63;23.58;;;18.00;99.90;;;;;;4888463;29;20046;-50
2022/12/25 14:02:03;;;;;;;55.03;19.60;;;18.10;99.90;;;;;;4935910;29;20035;-51
2022/12/25 14:04:29;;;;;;;39.40;15.90;;;17.90;99.90;;;;;;4879068;29;20093;-52
2022/12/25 14:06:55;;;;;;;106.00;30.85;;;;;;;;;;4879287;29;20394;-51
2022/12/25 14:09:21;;;;;;;44.28;19.33;;;;;;;;;;4895074;29;20036;-51
2022/12/25 14:11:51;;;;;;;77.22;24.85;;;;;;;;;;4898011;29;20044;-51
2022/12/25 14:14:20;;;;;;;35.08;17.20;;;17.40;99.90;;;;;;4992749;28;20054;-50
2022/12/25 14:16:48;;;;;;;72.40;26.40;;;17.00;98.40;;;;;;4977350;28;20177;-50
2022/12/25 14:19:31;;;;;;;46.90;18.00;;;17.00;98.80;;;;;;4961017;28;20584;-50
2022/12/25 14:22:18;;;;;;;76.85;25.27;;;16.90;99.10;;;;;;4993451;28;20037;-48
2022/12/25 14:24:44;;;;;;;42.88;16.08;;;16.80;99.50;;;;;;4993164;28;20077;-49
2022/12/25 14:27:21;;;;;;;53.10;16.23;;;;;;;;;;4993353;28;20478;-50
2022/12/25 14:29:49;;;;;;;34.70;12.52;;;16.70;99.90;;;;;;4993309;28;20069;-51
2022/12/25 14:32:17;;;;;;;21.88;11.45;;;16.40;99.90;;;;;;4993284;28;20401;-49
2022/12/25 14:34:46;;;;;;;22.17;11.18;;;16.30;99.90;;;;;;5004441;28;20036;-51
2022/12/25 14:37:19;;;;;;;33.55;12.02;;;16.20;99.90;;;;;;5049774;28;20032;-50
2022/12/25 14:39:59;;;;;;;17.45;8.82;;;16.10;99.90;;;;;;5095097;28;20064;-49
2022/12/25 14:42:28;;;;;;;13.73;7.55;;;16.10;99.90;;;;;;5094496;28;20032;-50
2022/12/25 14:45:05;;;;;;;14.98;7.47;;;16.00;99.90;;;;;;5075727;28;20040;-49
2022/12/25 14:47:38;;;;;;;11.38;7.43;;;15.80;99.90;;;;;;5075619;28;20032;-51
2022/12/25 14:50:14;;;;;;;11.70;7.75;;;15.80;99.90;;;;;;5094097;28;20081;-49
2022/12/25 14:52:44;;;;;;;13.25;7.90;;;15.70;99.90;;;;;;5042355;28;20051;-51
2022/12/25 14:55:22;;;;;;;18.35;8.32;;;15.40;99.90;;;;;;5075546;28;20043;-49
2022/12/25 14:57:51;;;;;;;26.75;10.38;;;15.30;99.90;;;;;;5094313;28;20032;-50
2022/12/25 15:00:30;;;;;;;38.22;15.73;;;15.10;99.90;;;;;;5094685;28;20028;-51
2022/12/25 15:02:57;;;;;;;66.22;19.83;;;15.00;99.90;;;;;;5093943;28;20036;-49
2022/12/25 15:05:24;;;;;;;32.25;16.05;;;15.00;99.90;;;;;;5094150;28;20427;-49
2022/12/25 15:08:00;;;;;;;56.50;24.60;;;;;;;;;;5053985;28;20064;-51
2022/12/25 15:10:26;;;;;;;37.90;18.38;;;15.00;99.90;;;;;;5074076;28;20165;-49
2022/12/25 15:12:52;;;;;;;40.80;17.50;;;14.90;99.90;;;;;;5073540;28;20065;-49
2022/12/25 15:15:18;;;;;;;24.98;15.52;;;14.80;99.90;;;;;;5073762;28;20028;-50